sensor_id;sensor_type;location;lat;lon;timestamp;pressure;altitude;pressure_sealevel;temperature;humidity
7774;BME280;3931;42.260;23.116;2022-12-18T00:00:57;95856.81;;;15.96;100.00
7774;BME280;3931;42.260;23.116;2022-12-18T00:03:23;95809.19;;;16.36;100.00
7774;BME280;3931;42.260;23.116;2022-12-18T00:05:50;95825.78;;;15.94;100.00
7774;BME280;3931;42.260;23.116;2022-12-18T00:08:17;95837.59;;;16.17;100.00
7774;BME280;3931;42.260;23.116;2022-12-18T00:10:44;95781.75;;;15.89;100.00
7774;BME280;3931;42.260;23.116;2022-12-18T00:13:11;95774.94;;;15.81;100.00
7774;BME280;3931;42.260;23.116;2022-12-18T00:15:38;95788.09;;;15.63;100.00
7774;BME280;3931;42.260;23.116;2022-12-18T00:18:05;95792.63;;;15.96;100.00
7774;BME280;3931;42.260;23.116;2022-12-18T00:20:32;95790.72;;;15.57;100.00
7774;BME280;3931;42.260;23.116;2022-12-18T00:23:01;95829.00;;;14.86;100.00
7774;BME280;3931;42.260;23.116;2022-12-18T00:25:27;95720.22;;;14.28;100.00
7774;BME280;3931;42.260;23.116;2022-12-18T00:27:53;95714.19;;;15.00;100.00
7774;BME280;3931;42.260;23.116;2022-12-18T00:30:19;95779.91;;;15.19;100.00
7774;BME280;3931;42.260;23.116;2022-12-18T00:32:45;95819.06;;;15.16;100.00
7774;BME280;3931;42.260;23.116;2022-12-18T00:35:12;95870.25;;;15.40;100.00
7774;BME280;3931;42.260;23.116;2022-12-18T00:37:38;95802.72;;;14.66;100.00
7774;BME280;3931;42.260;23.116;2022-12-18T00:40:05;95808.91;;;15.40;100.00
7774;BME280;3931;42.260;23.116;2022-12-18T00:42:31;95879.88;;;15.39;100.00
7774;BME280;3931;42.260;23.116;2022-12-18T00:45:15;95926.56;;;15.96;100.00
7774;BME280;3931;42.260;23.116;2022-12-18T00:47:42;96007.38;;;15.69;100.00
7774;BME280;3931;42.260;23.116;2022-12-18T00:50:09;96005.25;;;16.13;100.00
7774;BME280;3931;42.260;23.116;2022-12-18T00:52:35;96020.19;;;15.88;100.00
7774;BME280;3931;42.260;23.116;2022-12-18T00:55:01;96042.41;;;16.01;100.00
7774;BME280;3931;42.260;23.116;2022-12-18T00:57:27;96074.13;;;15.85;100.00
7774;BME280;3931;42.260;23.116;2022-12-18T00:59:54;96086.78;;;15.77;100.00
7774;BME280;3931;42.260;23.116;2022-12-18T01:02:20;96065.84;;;15.51;100.00
7774;BME280;3931;42.260;23.116;2022-12-18T01:04:46;96019.59;;;15.41;100.00
7774;BME280;3931;42.260;23.116;2022-12-18T01:07:12;95989.47;;;15.05;100.00
7774;BME280;3931;42.260;23.116;2022-12-18T01:09:38;95908.09;;;14.67;100.00
7774;BME280;3931;42.260;23.116;2022-12-18T01:12:05;95980.50;;;14.89;100.00
7774;BME280;3931;42.260;23.116;2022-12-18T01:14:31;95936.88;;;14.51;100.00
7774;BME280;3931;42.260;23.116;2022-12-18T01:16:57;96054.69;;;15.73;100.00
7774;BME280;3931;42.260;23.116;2022-12-18T01:19:24;96060.28;;;16.13;100.00
7774;BME280;3931;42.260;23.116;2022-12-18T01:21:50;96144.97;;;16.80;100.00
7774;BME280;3931;42.260;23.116;2022-12-18T01:24:16;96055.09;;;15.62;100.00
7774;BME280;3931;42.260;23.116;2022-12-18T01:26:42;96120.22;;;16.30;100.00
7774;BME280;3931;42.260;23.116;2022-12-18T01:29:08;96171.47;;;16.66;100.00
7774;BME280;3931;42.260;23.116;2022-12-18T01:31:34;96166.69;;;16.45;100.00
7774;BME280;3931;42.260;23.116;2022-12-18T01:34:01;96169.88;;;16.56;100.00
7774;BME280;3931;42.260;23.116;2022-12-18T01:36:29;96189.72;;;16.89;97.88
7774;BME280;3931;42.260;23.116;2022-12-18T01:38:56;96201.72;;;16.37;96.50
7774;BME280;3931;42.260;23.116;2022-12-18T01:41:24;96188.53;;;16.59;98.07
7774;BME280;3931;42.260;23.116;2022-12-18T01:43:52;96180.91;;;16.08;100.00
7774;BME280;3931;42.260;23.116;2022-12-18T01:46:21;96177.97;;;16.63;99.86
7774;BME280;3931;42.260;23.116;2022-12-18T01:48:50;96178.97;;;16.17;100.00
7774;BME280;3931;42.260;23.116;2022-12-18T01:51:16;96161.47;;;15.73;100.00
7774;BME280;3931;42.260;23.116;2022-12-18T01:53:44;96113.25;;;14.83;100.00
7774;BME280;3931;42.260;23.116;2022-12-18T01:56:15;96070.19;;;14.49;100.00
7774;BME280;3931;42.260;23.116;2022-12-18T01:58:48;96074.38;;;14.79;100.00
7774;BME280;3931;42.260;23.116;2022-12-18T02:01:16;96058.28;;;14.62;100.00
7774;BME280;3931;42.260;23.116;2022-12-18T02:03:43;95964.16;;;13.59;100.00
7774;BME280;3931;42.260;23.116;2022-12-18T02:06:13;95854.97;;;11.36;100.00
7774;BME280;3931;42.260;23.116;2022-12-18T02:08:46;95827.97;;;13.47;100.00
7774;BME280;3931;42.260;23.116;2022-12-18T02:11:20;95934.97;;;14.14;100.00
7774;BME280;3931;42.260;23.116;2022-12-18T02:13:56;95911.50;;;13.43;100.00
7774;BME280;3931;42.260;23.116;2022-12-18T02:16:29;95995.34;;;14.86;100.00
7774;BME280;3931;42.260;23.116;2022-12-18T02:19:08;96069.38;;;14.74;100.00
7774;BME280;3931;42.260;23.116;2022-12-18T02:21:46;96115.97;;;14.48;100.00
7774;BME280;3931;42.260;23.116;2022-12-18T02:24:23;96079.53;;;13.80;100.00
7774;BME280;3931;42.260;23.116;2022-12-18T02:26:56;96035.47;;;14.16;100.00
7774;BME280;3931;42.260;23.116;2022-12-18T02:29:26;96031.41;;;13.42;100.00
7774;BME280;3931;42.260;23.116;2022-12-18T02:31:56;96019.72;;;12.32;100.00
7774;BME280;3931;42.260;23.116;2022-12-18T02:34:31;96102.91;;;15.17;100.00
7774;BME280;3931;42.260;23.116;2022-12-18T02:37:00;96198.84;;;15.29;100.00
7774;BME280;3931;42.260;23.116;2022-12-18T02:39:29;96201.81;;;15.00;100.00
7774;BME280;3931;42.260;23.116;2022-12-18T02:41:58;96218.59;;;15.34;100.00
7774;BME280;3931;42.260;23.116;2022-12-18T02:44:25;96228.56;;;14.47;100.00
7774;BME280;3931;42.260;23.116;2022-12-18T02:46:53;96224.19;;;15.22;100.00
7774;BME280;3931;42.260;23.116;2022-12-18T02:49:30;96232.53;;;15.34;100.00
7774;BME280;3931;42.260;23.116;2022-12-18T02:52:06;96190.75;;;13.67;100.00
7774;BME280;3931;42.260;23.116;2022-12-18T02:54:41;96194.16;;;14.79;100.00
7774;BME280;3931;42.260;23.116;2022-12-18T02:57:19;96156.50;;;13.42;100.00
7774;BME280;3931;42.260;23.116;2022-12-18T02:59:56;96132.63;;;13.98;100.00
7774;BME280;3931;42.260;23.116;2022-12-18T03:02:27;96172.53;;;14.58;100.00
7774;BME280;3931;42.260;23.116;2022-12-18T03:05:00;96165.41;;;14.44;100.00
7774;BME280;3931;42.260;23.116;2022-12-18T03:07:35;96196.88;;;14.16;100.00
7774;BME280;3931;42.260;23.116;2022-12-18T03:10:06;96181.03;;;13.88;100.00
7774;BME280;3931;42.260;23.116;2022-12-18T03:12:37;96194.41;;;14.18;100.00
7774;BME280;3931;42.260;23.116;2022-12-18T03:15:08;96146.91;;;13.71;100.00
7774;BME280;3931;42.260;23.116;2022-12-18T03:17:35;96139.56;;;13.65;100.00
7774;BME280;3931;42.260;23.116;2022-12-18T03:20:07;96129.16;;;12.79;100.00
7774;BME280;3931;42.260;23.116;2022-12-18T03:22:37;96053.97;;;12.58;100.00
7774;BME280;3931;42.260;23.116;2022-12-18T03:25:06;96038.91;;;12.87;100.00
7774;BME280;3931;42.260;23.116;2022-12-18T03:27:36;96038.59;;;12.98;100.00
7774;BME280;3931;42.260;23.116;2022-12-18T03:30:07;96018.56;;;12.90;100.00
7774;BME280;3931;42.260;23.116;2022-12-18T03:32:39;96052.16;;;13.12;100.00
7774;BME280;3931;42.260;23.116;2022-12-18T03:35:08;96032.16;;;12.72;100.00
7774;BME280;3931;42.260;23.116;2022-12-18T03:37:36;96020.63;;;12.74;100.00
7774;BME280;3931;42.260;23.116;2022-12-18T03:40:02;96043.56;;;12.90;100.00
7774;BME280;3931;42.260;23.116;2022-12-18T03:42:31;96045.28;;;12.56;100.00
7774;BME280;3931;42.260;23.116;2022-12-18T03:45:08;96110.81;;;13.43;100.00
7774;BME280;3931;42.260;23.116;2022-12-18T03:47:38;96178.84;;;13.38;100.00
7774;BME280;3931;42.260;23.116;2022-12-18T03:50:11;96211.84;;;13.65;100.00
7774;BME280;3931;42.260;23.116;2022-12-18T03:52:45;96196.16;;;13.58;100.00
7774;BME280;3931;42.260;23.116;2022-12-18T03:55:14;96212.84;;;13.58;100.00
7774;BME280;3931;42.260;23.116;2022-12-18T03:57:42;96199.81;;;13.55;100.00
7774;BME280;3931;42.260;23.116;2022-12-18T04:00:12;96229.63;;;13.83;100.00
7774;BME280;3931;42.260;23.116;2022-12-18T04:02:45;96275.56;;;14.45;100.00
7774;BME280;3931;42.260;23.116;2022-12-18T04:05:12;96299.84;;;14.45;100.00
7774;BME280;3931;42.260;23.116;2022-12-18T04:07:40;96312.44;;;14.49;100.00
7774;BME280;3931;42.260;23.116;2022-12-18T04:10:12;96288.06;;;13.03;100.00
7774;BME280;3931;42.260;23.116;2022-12-18T04:12:38;96231.75;;;13.19;100.00
7774;BME280;3931;42.260;23.116;2022-12-18T04:15:05;96256.88;;;13.60;100.00
7774;BME280;3931;42.260;23.116;2022-12-18T04:17:32;96311.25;;;13.77;100.00
7774;BME280;3931;42.260;23.116;2022-12-18T04:19:58;96269.03;;;13.01;100.00
7774;BME280;3931;42.260;23.116;2022-12-18T04:22:24;96273.38;;;12.86;100.00
7774;BME280;3931;42.260;23.116;2022-12-18T04:24:50;96283.13;;;13.10;100.00
7774;BME280;3931;42.260;23.116;2022-12-18T04:27:16;96306.06;;;13.47;100.00
7774;BME280;3931;42.260;23.116;2022-12-18T04:29:42;96323.84;;;13.17;100.00
7774;BME280;3931;42.260;23.116;2022-12-18T04:32:08;96328.06;;;13.86;100.00
7774;BME280;3931;42.260;23.116;2022-12-18T04:34:35;96320.47;;;13.09;100.00
7774;BME280;3931;42.260;23.116;2022-12-18T04:37:01;96334.19;;;13.65;100.00
7774;BME280;3931;42.260;23.116;2022-12-18T04:39:27;96304.41;;;12.81;100.00
7774;BME280;3931;42.260;23.116;2022-12-18T04:41:53;96283.94;;;13.27;100.00
7774;BME280;3931;42.260;23.116;2022-12-18T04:44:19;96308.38;;;13.00;100.00
7774;BME280;3931;42.260;23.116;2022-12-18T04:46:45;96282.03;;;12.72;100.00
7774;BME280;3931;42.260;23.116;2022-12-18T04:49:11;96341.22;;;13.05;100.00
7774;BME280;3931;42.260;23.116;2022-12-18T04:51:38;96327.25;;;13.25;100.00
7774;BME280;3931;42.260;23.116;2022-12-18T04:54:05;96398.50;;;13.83;100.00
7774;BME280;3931;42.260;23.116;2022-12-18T04:56:31;96426.81;;;14.10;98.15
7774;BME280;3931;42.260;23.116;2022-12-18T04:58:57;96429.09;;;13.99;98.27
7774;BME280;3931;42.260;23.116;2022-12-18T05:01:23;96438.09;;;14.35;95.52
7774;BME280;3931;42.260;23.116;2022-12-18T05:03:50;96443.97;;;14.53;92.28
7774;BME280;3931;42.260;23.116;2022-12-18T05:06:17;96418.66;;;13.39;100.00
7774;BME280;3931;42.260;23.116;2022-12-18T05:08:44;96417.09;;;13.54;100.00
7774;BME280;3931;42.260;23.116;2022-12-18T05:11:12;96433.66;;;14.38;95.54
7774;BME280;3931;42.260;23.116;2022-12-18T05:13:41;96458.19;;;14.43;93.49
7774;BME280;3931;42.260;23.116;2022-12-18T05:16:08;96454.38;;;14.37;90.86
7774;BME280;3931;42.260;23.116;2022-12-18T05:18:34;96458.16;;;13.46;95.06
7774;BME280;3931;42.260;23.116;2022-12-18T05:21:01;96396.28;;;12.71;100.00
7774;BME280;3931;42.260;23.116;2022-12-18T05:23:27;96424.91;;;13.75;100.00
7774;BME280;3931;42.260;23.116;2022-12-18T05:25:55;96433.41;;;13.52;100.00
7774;BME280;3931;42.260;23.116;2022-12-18T05:28:23;96444.47;;;13.00;100.00
7774;BME280;3931;42.260;23.116;2022-12-18T05:30:51;96410.03;;;12.78;100.00
7774;BME280;3931;42.260;23.116;2022-12-18T05:33:18;96442.53;;;13.36;100.00
7774;BME280;3931;42.260;23.116;2022-12-18T05:35:49;96433.63;;;13.25;100.00
7774;BME280;3931;42.260;23.116;2022-12-18T05:38:16;96416.94;;;12.89;100.00
7774;BME280;3931;42.260;23.116;2022-12-18T05:40:42;96355.16;;;12.07;100.00
7774;BME280;3931;42.260;23.116;2022-12-18T05:43:09;96386.88;;;12.84;100.00
7774;BME280;3931;42.260;23.116;2022-12-18T05:45:36;96413.25;;;12.76;100.00
7774;BME280;3931;42.260;23.116;2022-12-18T05:48:03;96445.91;;;13.44;100.00
7774;BME280;3931;42.260;23.116;2022-12-18T05:50:29;96419.44;;;12.64;100.00
7774;BME280;3931;42.260;23.116;2022-12-18T05:52:55;96401.06;;;12.70;100.00
7774;BME280;3931;42.260;23.116;2022-12-18T05:55:21;96427.38;;;13.21;100.00
7774;BME280;3931;42.260;23.116;2022-12-18T05:57:47;96438.78;;;12.87;100.00
7774;BME280;3931;42.260;23.116;2022-12-18T06:00:15;96441.28;;;12.42;100.00
7774;BME280;3931;42.260;23.116;2022-12-18T06:02:41;96351.25;;;11.81;100.00
7774;BME280;3931;42.260;23.116;2022-12-18T06:05:07;96335.63;;;12.14;100.00
7774;BME280;3931;42.260;23.116;2022-12-18T06:07:34;96319.25;;;12.00;100.00
7774;BME280;3931;42.260;23.116;2022-12-18T06:10:00;96306.16;;;12.00;100.00
7774;BME280;3931;42.260;23.116;2022-12-18T06:12:26;96362.31;;;11.85;100.00
7774;BME280;3931;42.260;23.116;2022-12-18T06:14:52;96310.34;;;11.65;100.00
7774;BME280;3931;42.260;23.116;2022-12-18T06:17:19;96326.59;;;11.63;100.00
7774;BME280;3931;42.260;23.116;2022-12-18T06:19:45;96329.03;;;11.61;100.00
7774;BME280;3931;42.260;23.116;2022-12-18T06:22:11;96326.69;;;11.14;100.00
7774;BME280;3931;42.260;23.116;2022-12-18T06:24:37;96371.44;;;12.05;100.00
7774;BME280;3931;42.260;23.116;2022-12-18T06:27:03;96385.34;;;11.55;100.00
7774;BME280;3931;42.260;23.116;2022-12-18T06:29:29;96375.72;;;11.40;100.00
7774;BME280;3931;42.260;23.116;2022-12-18T06:31:55;96353.91;;;11.42;100.00
7774;BME280;3931;42.260;23.116;2022-12-18T06:34:22;96392.16;;;12.20;100.00
7774;BME280;3931;42.260;23.116;2022-12-18T06:36:48;96430.34;;;12.32;100.00
7774;BME280;3931;42.260;23.116;2022-12-18T06:39:14;96457.38;;;12.71;100.00
7774;BME280;3931;42.260;23.116;2022-12-18T06:41:40;96472.59;;;12.43;100.00
7774;BME280;3931;42.260;23.116;2022-12-18T06:44:06;96456.13;;;11.86;100.00
7774;BME280;3931;42.260;23.116;2022-12-18T06:46:32;96487.25;;;12.20;100.00
7774;BME280;3931;42.260;23.116;2022-12-18T06:48:58;96438.31;;;11.60;100.00
7774;BME280;3931;42.260;23.116;2022-12-18T06:51:25;96413.28;;;11.67;100.00
7774;BME280;3931;42.260;23.116;2022-12-18T06:53:51;96409.50;;;11.31;100.00
7774;BME280;3931;42.260;23.116;2022-12-18T06:56:17;96398.47;;;11.78;100.00
7774;BME280;3931;42.260;23.116;2022-12-18T06:58:43;96391.03;;;10.94;100.00
7774;BME280;3931;42.260;23.116;2022-12-18T07:01:11;96422.59;;;11.81;100.00
7774;BME280;3931;42.260;23.116;2022-12-18T07:03:37;96454.25;;;12.26;100.00
7774;BME280;3931;42.260;23.116;2022-12-18T07:06:03;96453.28;;;11.40;100.00
7774;BME280;3931;42.260;23.116;2022-12-18T07:08:30;96434.78;;;11.33;100.00
7774;BME280;3931;42.260;23.116;2022-12-18T07:10:57;96469.34;;;12.02;100.00
7774;BME280;3931;42.260;23.116;2022-12-18T07:13:23;96496.94;;;11.86;100.00
7774;BME280;3931;42.260;23.116;2022-12-18T07:15:49;96497.66;;;11.90;100.00
7774;BME280;3931;42.260;23.116;2022-12-18T07:18:15;96488.16;;;11.91;100.00
7774;BME280;3931;42.260;23.116;2022-12-18T07:20:41;96508.28;;;11.72;100.00
7774;BME280;3931;42.260;23.116;2022-12-18T07:23:07;96474.28;;;11.37;100.00
7774;BME280;3931;42.260;23.116;2022-12-18T07:25:35;96520.63;;;11.67;100.00
7774;BME280;3931;42.260;23.116;2022-12-18T07:28:01;96527.75;;;11.64;100.00
7774;BME280;3931;42.260;23.116;2022-12-18T07:30:27;96545.94;;;11.65;100.00
7774;BME280;3931;42.260;23.116;2022-12-18T07:32:53;96558.78;;;11.83;100.00
7774;BME280;3931;42.260;23.116;2022-12-18T07:35:19;96545.44;;;11.74;100.00
7774;BME280;3931;42.260;23.116;2022-12-18T07:37:45;96566.53;;;11.34;100.00
7774;BME280;3931;42.260;23.116;2022-12-18T07:40:12;96564.69;;;12.34;100.00
7774;BME280;3931;42.260;23.116;2022-12-18T07:42:38;96594.63;;;11.66;100.00
7774;BME280;3931;42.260;23.116;2022-12-18T07:45:05;96576.31;;;12.03;100.00
7774;BME280;3931;42.260;23.116;2022-12-18T07:47:34;96597.91;;;11.88;100.00
7774;BME280;3931;42.260;23.116;2022-12-18T07:50:00;96603.38;;;12.45;100.00
7774;BME280;3931;42.260;23.116;2022-12-18T07:52:26;96590.94;;;11.13;100.00
7774;BME280;3931;42.260;23.116;2022-12-18T07:54:52;96604.53;;;12.21;100.00
7774;BME280;3931;42.260;23.116;2022-12-18T07:57:18;96567.47;;;11.24;100.00
7774;BME280;3931;42.260;23.116;2022-12-18T07:59:44;96558.03;;;11.18;100.00
7774;BME280;3931;42.260;23.116;2022-12-18T08:02:11;96619.72;;;12.86;100.00
7774;BME280;3931;42.260;23.116;2022-12-18T08:04:37;96653.84;;;12.86;97.00
7774;BME280;3931;42.260;23.116;2022-12-18T08:07:03;96655.88;;;12.59;98.17
7774;BME280;3931;42.260;23.116;2022-12-18T08:09:29;96649.31;;;12.50;100.00
7774;BME280;3931;42.260;23.116;2022-12-18T08:11:55;96686.94;;;13.00;91.97
7774;BME280;3931;42.260;23.116;2022-12-18T08:14:21;96691.34;;;12.98;90.63
7774;BME280;3931;42.260;23.116;2022-12-18T08:16:48;96662.25;;;12.33;97.80
7774;BME280;3931;42.260;23.116;2022-12-18T08:19:14;96655.19;;;11.72;100.00
7774;BME280;3931;42.260;23.116;2022-12-18T08:21:40;96655.88;;;12.59;97.47
7774;BME280;3931;42.260;23.116;2022-12-18T08:24:08;96695.78;;;13.19;89.12
7774;BME280;3931;42.260;23.116;2022-12-18T08:26:34;96687.56;;;12.35;93.04
7774;BME280;3931;42.260;23.116;2022-12-18T08:29:01;96696.50;;;13.23;89.80
7774;BME280;3931;42.260;23.116;2022-12-18T08:31:28;96694.44;;;12.54;90.78
7774;BME280;3931;42.260;23.116;2022-12-18T08:33:56;96681.16;;;12.88;92.50
7774;BME280;3931;42.260;23.116;2022-12-18T08:36:23;96696.84;;;13.25;86.74
7774;BME280;3931;42.260;23.116;2022-12-18T08:38:50;96721.28;;;12.87;83.47
7774;BME280;3931;42.260;23.116;2022-12-18T08:41:17;96705.94;;;11.61;88.86
7774;BME280;3931;42.260;23.116;2022-12-18T08:43:43;96709.94;;;12.24;87.65
7774;BME280;3931;42.260;23.116;2022-12-18T08:46:32;96688.59;;;11.91;93.69
7774;BME280;3931;42.260;23.116;2022-12-18T08:49:00;96712.28;;;13.02;85.33
7774;BME280;3931;42.260;23.116;2022-12-18T08:51:26;96706.53;;;13.17;84.36
7774;BME280;3931;42.260;23.116;2022-12-18T08:53:52;96717.56;;;13.43;79.58
7774;BME280;3931;42.260;23.116;2022-12-18T08:56:18;96724.25;;;12.50;81.15
7774;BME280;3931;42.260;23.116;2022-12-18T08:58:44;96715.31;;;13.35;80.83
7774;BME280;3931;42.260;23.116;2022-12-18T09:01:11;96714.28;;;12.79;82.17
7774;BME280;3931;42.260;23.116;2022-12-18T09:03:38;96713.00;;;12.83;84.69
7774;BME280;3931;42.260;23.116;2022-12-18T09:06:05;96713.22;;;12.69;83.12
7774;BME280;3931;42.260;23.116;2022-12-18T09:08:35;96722.19;;;12.54;83.70
7774;BME280;3931;42.260;23.116;2022-12-18T09:11:02;96716.69;;;12.50;83.45
7774;BME280;3931;42.260;23.116;2022-12-18T09:13:28;96715.59;;;13.21;79.62
7774;BME280;3931;42.260;23.116;2022-12-18T09:15:54;96711.78;;;13.11;77.98
7774;BME280;3931;42.260;23.116;2022-12-18T09:18:22;96713.19;;;12.96;78.93
7774;BME280;3931;42.260;23.116;2022-12-18T09:20:48;96711.97;;;12.97;78.55
7774;BME280;3931;42.260;23.116;2022-12-18T09:23:16;96712.94;;;13.56;77.42
7774;BME280;3931;42.260;23.116;2022-12-18T09:25:42;96708.53;;;13.78;77.68
7774;BME280;3931;42.260;23.116;2022-12-18T09:28:11;96709.56;;;12.22;82.16
7774;BME280;3931;42.260;23.116;2022-12-18T09:30:37;96700.00;;;12.54;85.16
7774;BME280;3931;42.260;23.116;2022-12-18T09:33:03;96692.22;;;12.15;85.47
7774;BME280;3931;42.260;23.116;2022-12-18T09:35:29;96688.25;;;11.52;90.21
7774;BME280;3931;42.260;23.116;2022-12-18T09:37:55;96692.13;;;12.22;87.15
7774;BME280;3931;42.260;23.116;2022-12-18T09:40:25;96674.13;;;12.33;87.42
7774;BME280;3931;42.260;23.116;2022-12-18T09:42:55;96677.53;;;12.44;87.21
7774;BME280;3931;42.260;23.116;2022-12-18T09:45:23;96675.88;;;12.74;86.05
7774;BME280;3931;42.260;23.116;2022-12-18T09:47:52;96694.34;;;12.84;84.30
7774;BME280;3931;42.260;23.116;2022-12-18T09:50:24;96694.31;;;13.73;79.86
7774;BME280;3931;42.260;23.116;2022-12-18T09:52:55;96699.97;;;13.50;79.77
7774;BME280;3931;42.260;23.116;2022-12-18T09:55:29;96698.81;;;13.67;78.83
7774;BME280;3931;42.260;23.116;2022-12-18T09:58:01;96697.31;;;14.02;76.36
7774;BME280;3931;42.260;23.116;2022-12-18T10:00:29;96695.91;;;13.74;78.27
7774;BME280;3931;42.260;23.116;2022-12-18T10:03:00;96698.03;;;13.24;79.27
7774;BME280;3931;42.260;23.116;2022-12-18T10:05:35;96691.38;;;12.71;85.06
7774;BME280;3931;42.260;23.116;2022-12-18T10:08:07;96674.94;;;13.03;86.71
7774;BME280;3931;42.260;23.116;2022-12-18T10:10:43;96681.31;;;12.81;87.37
7774;BME280;3931;42.260;23.116;2022-12-18T10:13:21;96676.97;;;13.03;89.22
7774;BME280;3931;42.260;23.116;2022-12-18T10:16:04;96678.59;;;12.54;90.63
7774;BME280;3931;42.260;23.116;2022-12-18T10:18:50;96664.22;;;12.32;90.86
7774;BME280;3931;42.260;23.116;2022-12-18T10:21:26;96659.56;;;12.99;90.48
7774;BME280;3931;42.260;23.116;2022-12-18T10:24:03;96650.50;;;12.22;95.03
7774;BME280;3931;42.260;23.116;2022-12-18T10:26:35;96683.91;;;13.97;81.16
7774;BME280;3931;42.260;23.116;2022-12-18T10:29:06;96682.78;;;13.94;78.85
7774;BME280;3931;42.260;23.116;2022-12-18T10:31:34;96670.78;;;13.58;80.19
7774;BME280;3931;42.260;23.116;2022-12-18T10:34:00;96671.13;;;14.71;77.95
7774;BME280;3931;42.260;23.116;2022-12-18T10:36:26;96675.44;;;13.45;81.20
7774;BME280;3931;42.260;23.116;2022-12-18T10:38:52;96673.94;;;13.60;79.69
7774;BME280;3931;42.260;23.116;2022-12-18T10:41:24;96678.03;;;14.11;77.08
7774;BME280;3931;42.260;23.116;2022-12-18T10:44:11;96672.03;;;14.32;75.66
7774;BME280;3931;42.260;23.116;2022-12-18T10:46:38;96670.47;;;14.11;77.21
7774;BME280;3931;42.260;23.116;2022-12-18T10:49:04;96667.97;;;13.61;79.13
7774;BME280;3931;42.260;23.116;2022-12-18T10:51:32;96672.03;;;13.14;81.10
7774;BME280;3931;42.260;23.116;2022-12-18T10:54:00;96660.47;;;13.58;79.00
7774;BME280;3931;42.260;23.116;2022-12-18T10:56:29;96669.94;;;14.36;76.68
7774;BME280;3931;42.260;23.116;2022-12-18T10:58:59;96665.53;;;14.38;73.71
7774;BME280;3931;42.260;23.116;2022-12-18T11:01:25;96669.13;;;14.19;74.38
7774;BME280;3931;42.260;23.116;2022-12-18T11:04:00;96666.13;;;14.30;72.55
7774;BME280;3931;42.260;23.116;2022-12-18T11:06:27;96656.13;;;14.32;73.25
7774;BME280;3931;42.260;23.116;2022-12-18T11:08:58;96665.53;;;14.38;72.29
7774;BME280;3931;42.260;23.116;2022-12-18T11:11:24;96669.84;;;15.20;68.39
7774;BME280;3931;42.260;23.116;2022-12-18T11:13:59;96667.28;;;13.93;74.35
7774;BME280;3931;42.260;23.116;2022-12-18T11:16:27;96671.72;;;13.71;77.01
7774;BME280;3931;42.260;23.116;2022-12-18T11:19:19;96664.19;;;14.07;75.85
7774;BME280;3931;42.260;23.116;2022-12-18T11:21:46;96674.59;;;14.75;72.67
7774;BME280;3931;42.260;23.116;2022-12-18T11:24:20;96672.69;;;14.88;70.03
7774;BME280;3931;42.260;23.116;2022-12-18T11:26:48;96679.53;;;15.15;70.05
7774;BME280;3931;42.260;23.116;2022-12-18T11:29:17;96673.34;;;15.24;69.73
7774;BME280;3931;42.260;23.116;2022-12-18T11:31:43;96684.97;;;15.06;69.50
7774;BME280;3931;42.260;23.116;2022-12-18T11:34:11;96681.56;;;14.99;69.58
7774;BME280;3931;42.260;23.116;2022-12-18T11:36:43;96689.41;;;14.88;68.71
7774;BME280;3931;42.260;23.116;2022-12-18T11:39:16;96683.66;;;14.95;67.55
7774;BME280;3931;42.260;23.116;2022-12-18T11:41:48;96691.16;;;14.66;67.79
7774;BME280;3931;42.260;23.116;2022-12-18T11:44:42;96692.66;;;14.34;67.84
7774;BME280;3931;42.260;23.116;2022-12-18T11:47:13;96688.13;;;13.65;70.40
7774;BME280;3931;42.260;23.116;2022-12-18T11:49:41;96688.97;;;13.43;73.66
7774;BME280;3931;42.260;23.116;2022-12-18T11:52:18;96695.00;;;14.36;70.38
7774;BME280;3931;42.260;23.116;2022-12-18T11:54:45;96694.41;;;13.69;72.98
7774;BME280;3931;42.260;23.116;2022-12-18T11:57:18;96700.69;;;13.73;71.46
7774;BME280;3931;42.260;23.116;2022-12-18T11:59:58;96699.88;;;13.73;72.08
7774;BME280;3931;42.260;23.116;2022-12-18T12:02:40;96690.13;;;13.65;73.00
7774;BME280;3931;42.260;23.116;2022-12-18T12:05:19;96695.94;;;13.08;73.83
7774;BME280;3931;42.260;23.116;2022-12-18T12:07:55;96688.75;;;13.34;73.21
7774;BME280;3931;42.260;23.116;2022-12-18T12:10:33;96693.75;;;13.19;72.86
7774;BME280;3931;42.260;23.116;2022-12-18T12:13:22;96694.53;;;13.43;72.78
7774;BME280;3931;42.260;23.116;2022-12-18T12:16:01;96692.47;;;13.66;73.71
7774;BME280;3931;42.260;23.116;2022-12-18T12:18:40;96680.78;;;13.55;75.38
7774;BME280;3931;42.260;23.116;2022-12-18T12:21:17;96687.66;;;13.04;81.32
7774;BME280;3931;42.260;23.116;2022-12-18T12:23:52;96679.09;;;12.45;85.84
7774;BME280;3931;42.260;23.116;2022-12-18T12:26:27;96683.38;;;13.23;83.24
7774;BME280;3931;42.260;23.116;2022-12-18T12:29:13;96687.50;;;13.35;81.33
7774;BME280;3931;42.260;23.116;2022-12-18T12:31:55;96683.91;;;12.91;82.02
7774;BME280;3931;42.260;23.116;2022-12-18T12:34:26;96689.31;;;13.45;82.80
7774;BME280;3931;42.260;23.116;2022-12-18T12:37:10;96689.31;;;13.45;80.69
7774;BME280;3931;42.260;23.116;2022-12-18T12:39:42;96693.69;;;12.76;81.41
7774;BME280;3931;42.260;23.116;2022-12-18T12:42:15;96693.16;;;13.51;78.40
7774;BME280;3931;42.260;23.116;2022-12-18T12:45:17;96701.50;;;12.58;81.55
7774;BME280;3931;42.260;23.116;2022-12-18T12:47:48;96698.84;;;13.01;78.69
7774;BME280;3931;42.260;23.116;2022-12-18T12:50:17;96705.06;;;12.85;76.44
7774;BME280;3931;42.260;23.116;2022-12-18T12:52:47;96708.00;;;12.98;78.31
7774;BME280;3931;42.260;23.116;2022-12-18T12:55:16;96707.25;;;12.44;81.83
7774;BME280;3931;42.260;23.116;2022-12-18T12:57:46;96720.31;;;12.97;78.78
7774;BME280;3931;42.260;23.116;2022-12-18T13:00:18;96714.09;;;12.89;76.66
7774;BME280;3931;42.260;23.116;2022-12-18T13:02:54;96715.72;;;12.07;78.49
7774;BME280;3931;42.260;23.116;2022-12-18T13:05:26;96725.16;;;12.66;77.38
7774;BME280;3931;42.260;23.116;2022-12-18T13:07:59;96719.19;;;12.41;77.13
7774;BME280;3931;42.260;23.116;2022-12-18T13:10:36;96726.13;;;12.29;78.12
7774;BME280;3931;42.260;23.116;2022-12-18T13:13:05;96735.13;;;12.64;75.57
7774;BME280;3931;42.260;23.116;2022-12-18T13:15:34;96731.66;;;11.28;77.99